createdAt,value
2018-04-13T00:01:12.639Z,70.67
2018-04-13T00:04:22.019Z,61.67
2018-04-13T00:07:31.466Z,69.30
2018-04-13T00:10:41.683Z,88.03
2018-04-13T00:13:52.032Z,80.87
2018-04-13T00:17:03.890Z,81.90
2018-04-13T00:20:15.134Z,87.60
2018-04-13T00:23:24.559Z,81.80
2018-04-13T00:26:34.483Z,77.57
2018-04-13T00:29:44.721Z,73.70
2018-04-13T00:32:54.927Z,71.43
2018-04-13T00:36:04.909Z,86.13
2018-04-13T00:39:15.045Z,85.50
2018-04-13T00:42:25.352Z,57.00
2018-04-13T00:45:34.774Z,67.67
2018-04-13T00:48:44.324Z,81.23
2018-04-13T00:51:53.843Z,76.50
2018-04-13T00:55:03.263Z,97.43
2018-04-13T00:58:12.745Z,88.73
2018-04-13T01:01:22.159Z,83.80
2018-04-13T01:04:31.719Z,80.97
2018-04-13T01:07:41.855Z,83.93
2018-04-13T01:10:51.277Z,78.63
2018-04-13T01:14:01.635Z,89.10
2018-04-13T01:17:11.627Z,80.03
2018-04-13T01:20:22.070Z,64.10
2018-04-13T01:23:31.792Z,88.10
2018-04-13T01:26:45.269Z,64.60
2018-04-13T01:29:54.527Z,77.90
2018-04-13T01:33:06.711Z,88.33
2018-04-13T01:36:16.443Z,90.70
2018-04-13T01:39:27.095Z,59.57
2018-04-13T01:42:36.539Z,54.77
2018-04-13T01:45:46.467Z,60.47
2018-04-13T01:48:56.651Z,79.33
2018-04-13T01:52:06.003Z,81.27
2018-04-13T01:55:15.408Z,79.30
2018-04-13T01:58:25.871Z,85.67
2018-04-13T02:01:36.288Z,95.33
2018-04-13T02:04:49.616Z,68.03
2018-04-13T02:07:59.054Z,83.00
2018-04-13T02:11:09.582Z,60.67
2018-04-13T02:14:19.158Z,57.10
2018-04-13T02:17:29.549Z,72.30
2018-04-13T02:20:39.118Z,55.23
2018-04-13T02:23:50.351Z,51.30
2018-04-13T02:26:59.807Z,60.97
2018-04-13T02:30:09.309Z,84.43
2018-04-13T02:33:23.411Z,86.13
2018-04-13T02:36:32.831Z,85.67
2018-04-13T02:39:42.860Z,88.80
2018-04-13T02:42:53.145Z,90.90
2018-04-13T02:46:03.412Z,96.23
2018-04-13T02:49:12.878Z,72.87
2018-04-13T02:52:22.164Z,94.57
2018-04-13T02:55:31.736Z,84.53
2018-04-13T02:58:41.592Z,69.73
2018-04-13T03:01:51.846Z,72.93
2018-04-13T03:05:01.341Z,70.53
2018-04-13T03:08:11.539Z,74.53
2018-04-13T03:11:21.803Z,92.80
2018-04-13T03:14:31.251Z,95.50
2018-04-13T03:17:41.160Z,95.67
2018-04-13T03:20:50.702Z,85.30
2018-04-13T03:24:00.194Z,65.57
2018-04-13T03:27:09.683Z,59.77
2018-04-13T03:30:19.058Z,49.70
2018-04-13T03:33:28.950Z,69.37
2018-04-13T03:36:38.415Z,77.37
2018-04-13T03:39:47.829Z,69.07
2018-04-13T03:42:58.374Z,63.40
2018-04-13T03:46:07.896Z,69.10
2018-04-13T03:49:18.181Z,51.80
2018-04-13T03:52:27.606Z,52.50
2018-04-13T03:55:37.751Z,75.33
2018-04-13T03:58:47.679Z,76.20
2018-04-13T04:01:57.771Z,67.73
2018-04-13T04:05:07.056Z,68.23
2018-04-13T04:08:17.725Z,74.20
2018-04-13T04:11:27.109Z,65.93
2018-04-13T04:14:37.432Z,64.90
2018-04-13T04:17:46.786Z,67.87
2018-04-13T04:21:14.091Z,65.90
2018-04-13T04:24:43.375Z,72.77
2018-04-13T04:27:52.836Z,61.93
2018-04-13T04:31:03.097Z,64.63
2018-04-13T04:34:13.019Z,81.97
2018-04-13T04:37:23.291Z,76.60
2018-04-13T04:40:33.139Z,71.37
2018-04-13T04:43:43.608Z,79.50
2018-04-13T04:46:53.088Z,75.70
2018-04-13T04:50:03.484Z,78.00
2018-04-13T04:53:13.778Z,93.90
2018-04-13T04:56:24.041Z,68.40
2018-04-13T04:59:37.171Z,58.43
2018-04-13T05:02:46.628Z,72.57
2018-04-13T05:05:56.456Z,68.27
2018-04-13T05:09:06.716Z,65.53
2018-04-13T05:12:16.563Z,68.37
2018-04-13T05:15:26.429Z,64.90
2018-04-13T05:18:35.911Z,69.83
2018-04-13T05:21:47.991Z,60.27
2018-04-13T05:24:57.368Z,59.67
2018-04-13T05:28:06.900Z,69.70
2018-04-13T05:31:16.352Z,77.63
2018-04-13T05:34:26.148Z,82.37
2018-04-13T05:37:36.447Z,104.23
2018-04-13T05:40:46.862Z,96.17
2018-04-13T05:43:57.663Z,98.70
2018-04-13T05:47:08.418Z,93.57
2018-04-13T05:50:17.992Z,89.03
2018-04-13T05:53:28.100Z,75.00
2018-04-13T05:56:37.590Z,94.53
2018-04-13T05:59:48.819Z,91.83
2018-04-13T06:02:59.087Z,91.73
2018-04-13T06:06:08.962Z,82.67
2018-04-13T06:09:19.184Z,85.77
2018-04-13T06:12:29.162Z,85.50
2018-04-13T06:15:39.275Z,83.10
2018-04-13T06:18:49.626Z,83.70
2018-04-13T06:21:59.874Z,82.30
2018-04-13T06:25:09.483Z,79.13
2018-04-13T06:28:19.679Z,77.60
2018-04-13T06:31:29.206Z,79.87
2018-04-13T06:34:38.440Z,76.20
2018-04-13T06:37:48.262Z,76.13
2018-04-13T06:41:03.399Z,71.37
2018-04-13T06:44:13.534Z,68.93
2018-04-13T06:47:23.360Z,65.43
2018-04-13T06:50:33.603Z,68.07
2018-04-13T06:53:43.022Z,68.23
2018-04-13T06:56:53.348Z,69.50
2018-04-13T07:00:03.212Z,67.23
2018-04-13T07:03:12.591Z,63.13
2018-04-13T07:06:22.047Z,66.43
2018-04-13T07:09:31.506Z,58.57
2018-04-13T07:12:41.732Z,62.90
2018-04-13T07:15:52.008Z,61.83
2018-04-13T07:19:01.432Z,62.63
2018-04-13T07:22:11.562Z,65.50
2018-04-13T07:25:21.832Z,59.83
2018-04-13T07:28:31.583Z,59.70
2018-04-13T07:31:41.783Z,61.90
2018-04-13T07:34:52.046Z,62.97
2018-04-13T07:38:02.247Z,60.20
2018-04-13T07:41:12.632Z,58.17
2018-04-13T07:44:22.760Z,54.27
2018-04-13T07:47:32.462Z,53.83
2018-04-13T07:50:42.100Z,50.00
2018-04-13T07:53:51.745Z,53.23
2018-04-13T07:57:02.395Z,53.90
2018-04-13T08:00:12.284Z,51.13
2018-04-13T08:03:22.147Z,55.43
2018-04-13T08:06:32.540Z,53.80
2018-04-13T08:09:42.850Z,50.40
2018-04-13T08:12:52.248Z,56.83
2018-04-13T08:16:01.699Z,51.50
2018-04-13T08:19:11.799Z,53.40
2018-04-13T08:22:21.399Z,50.87
2018-04-13T08:25:30.689Z,54.57
2018-04-13T08:28:40.072Z,52.93
2018-04-13T08:31:50.422Z,52.07
2018-04-13T08:34:59.951Z,52.90
2018-04-13T08:38:10.253Z,50.80
2018-04-13T08:41:20.121Z,53.00
2018-04-13T08:44:29.762Z,49.57
2018-04-13T08:47:39.203Z,50.50
2018-04-13T08:50:48.668Z,47.47
2018-04-13T08:53:59.059Z,47.23
2018-04-13T08:57:08.595Z,47.10
2018-04-13T09:00:17.995Z,40.57
2018-04-13T09:03:27.948Z,41.80
2018-04-13T09:06:37.237Z,43.47
2018-04-13T09:09:46.719Z,44.73
2018-04-13T09:12:56.560Z,40.80
2018-04-13T09:16:07.608Z,45.30
2018-04-13T09:19:17.146Z,41.30
2018-04-13T09:22:27.383Z,42.47
2018-04-13T09:25:37.156Z,41.53
2018-04-13T09:28:46.648Z,37.97
2018-04-13T09:31:56.132Z,31.97
2018-04-13T09:35:06.151Z,28.53
2018-04-13T09:38:15.647Z,29.03
2018-04-13T09:41:25.004Z,25.33
2018-04-13T09:44:35.681Z,24.63
2018-04-13T09:47:45.099Z,24.17
2018-04-13T09:50:54.555Z,23.70
2018-04-13T09:54:04.380Z,25.97
2018-04-13T09:57:13.872Z,15.23
2018-04-13T10:00:30.000Z,24.40
2018-04-13T10:03:45.242Z,21.57
2018-04-13T10:06:54.638Z,22.33
2018-04-13T10:10:04.909Z,20.83
2018-04-13T10:13:14.384Z,20.80
2018-04-13T10:16:23.846Z,20.23
2018-04-13T10:19:33.296Z,18.43
2018-04-13T10:22:43.472Z,17.63
2018-04-13T10:25:52.807Z,18.60
2018-04-13T10:29:02.790Z,19.60
2018-04-13T10:32:13.121Z,19.70
2018-04-13T10:35:22.467Z,19.17
2018-04-13T10:38:31.751Z,20.23
2018-04-13T10:41:41.996Z,18.70
2018-04-13T10:44:53.261Z,20.20
2018-04-13T10:48:03.550Z,19.20
2018-04-13T10:51:12.959Z,17.77
2018-04-13T10:54:22.853Z,20.83
2018-04-13T10:57:33.384Z,22.37
2018-04-13T11:00:43.343Z,21.63
2018-04-13T11:03:53.251Z,20.97
2018-04-13T11:07:03.048Z,20.07
2018-04-13T11:10:13.356Z,20.13
2018-04-13T11:13:22.843Z,21.30
2018-04-13T11:16:32.200Z,20.63
2018-04-13T11:19:41.642Z,19.13
2018-04-13T11:22:52.416Z,18.40
2018-04-13T11:26:02.593Z,16.07
2018-04-13T11:29:11.992Z,14.70
2018-04-13T11:32:21.511Z,14.20
2018-04-13T11:35:31.331Z,13.53
2018-04-13T11:38:40.981Z,14.27
2018-04-13T11:41:52.156Z,14.67
2018-04-13T11:45:01.686Z,12.53
2018-04-13T11:48:11.783Z,13.20
2018-04-13T11:51:21.395Z,11.00
2018-04-13T11:54:30.796Z,9.57
2018-04-13T11:57:40.263Z,8.80
2018-04-13T12:00:50.067Z,9.37
2018-04-13T12:03:59.544Z,9.57
2018-04-13T12:07:08.972Z,11.00
2018-04-13T12:10:18.451Z,9.00
2018-04-13T12:13:28.243Z,9.67
2018-04-13T12:16:37.689Z,8.40
2018-04-13T12:19:47.603Z,9.90
2018-04-13T12:22:57.028Z,11.27
2018-04-13T12:26:07.256Z,11.47
2018-04-13T12:29:16.927Z,11.80
2018-04-13T12:32:28.007Z,12.20
2018-04-13T12:35:38.243Z,11.80
2018-04-13T12:38:47.656Z,11.60
2018-04-13T12:41:57.122Z,11.83
2018-04-13T12:45:07.402Z,12.80
2018-04-13T12:48:17.667Z,13.53
2018-04-13T12:51:27.512Z,13.67
2018-04-13T12:54:37.810Z,14.97
2018-04-13T12:57:47.439Z,12.43
2018-04-13T13:00:57.675Z,15.03
2018-04-13T13:04:07.588Z,15.73
2018-04-13T13:07:17.999Z,15.67
2018-04-13T13:10:27.881Z,16.10
2018-04-13T13:13:38.091Z,16.80
2018-04-13T13:16:48.345Z,14.63
2018-04-13T13:19:58.215Z,16.60
2018-04-13T13:23:08.219Z,17.33
2018-04-13T13:26:18.107Z,15.83
2018-04-13T13:29:27.559Z,19.13
2018-04-13T13:32:37.119Z,19.20
2018-04-13T13:35:46.421Z,16.80
2018-04-13T13:38:55.901Z,19.03
2018-04-13T13:42:05.857Z,18.33
2018-04-13T13:45:15.189Z,18.87
2018-04-13T13:48:25.387Z,19.17
2018-04-13T13:51:34.920Z,18.77
2018-04-13T13:54:44.683Z,17.13
2018-04-13T13:57:54.150Z,19.20
2018-04-13T14:01:03.855Z,19.73
2018-04-13T14:04:13.270Z,17.83
2018-04-13T14:07:22.779Z,20.20
2018-04-13T14:10:32.948Z,19.97
2018-04-13T14:13:42.755Z,20.53
2018-04-13T14:16:52.831Z,17.53
2018-04-13T14:20:03.069Z,19.03
2018-04-13T14:23:12.547Z,16.07
2018-04-13T14:26:22.228Z,18.40
2018-04-13T14:29:32.438Z,17.97
2018-04-13T14:32:45.711Z,18.67
2018-04-13T14:35:56.329Z,16.77
2018-04-13T14:39:06.561Z,17.27
2018-04-13T14:42:15.944Z,20.33
2018-04-13T14:45:26.995Z,19.33
2018-04-13T14:48:37.296Z,17.07
2018-04-13T14:51:47.148Z,18.43
2018-04-13T14:54:57.388Z,17.87
2018-04-13T14:58:06.823Z,19.23
2018-04-13T15:01:17.280Z,19.00
2018-04-13T15:04:26.781Z,17.97
2018-04-13T15:07:37.056Z,19.73
2018-04-13T15:10:47.075Z,17.13
2018-04-13T15:13:57.120Z,16.53
2018-04-13T15:17:06.615Z,16.90
2018-04-13T15:20:16.013Z,16.83
2018-04-13T15:23:26.224Z,16.77
2018-04-13T15:26:36.509Z,19.07
2018-04-13T15:29:45.950Z,18.63
2018-04-13T15:32:56.231Z,18.17
2018-04-13T15:36:05.643Z,18.53
2018-04-13T15:39:15.204Z,17.40
2018-04-13T15:42:25.350Z,17.23
2018-04-13T15:45:35.483Z,17.67
2018-04-13T15:48:45.513Z,19.10
2018-04-13T15:51:54.959Z,17.43
2018-04-13T15:55:04.344Z,18.50
2018-04-13T15:58:15.433Z,19.50
2018-04-13T16:01:25.292Z,20.07
2018-04-13T16:04:35.351Z,21.03
2018-04-13T16:07:45.211Z,19.03
2018-04-13T16:10:55.079Z,22.13
2018-04-13T16:14:05.309Z,18.33
2018-04-13T16:17:15.572Z,21.40
2018-04-13T16:20:25.011Z,21.33
2018-04-13T16:23:34.852Z,22.53
2018-04-13T16:26:44.610Z,22.83
2018-04-13T16:29:54.611Z,21.90
2018-04-13T16:33:03.984Z,21.77
2018-04-13T16:36:13.825Z,22.17
2018-04-13T16:39:23.896Z,21.60
2018-04-13T16:42:34.001Z,21.77
2018-04-13T16:45:44.208Z,20.77
2018-04-13T16:48:53.628Z,19.97
2018-04-13T16:52:02.963Z,20.43
2018-04-13T16:55:12.727Z,19.60
2018-04-13T16:58:22.210Z,19.97
2018-04-13T17:01:32.433Z,20.97
2018-04-13T17:04:41.897Z,20.13
2018-04-13T17:07:51.340Z,20.43
2018-04-13T17:11:01.977Z,21.03
2018-04-13T17:14:13.234Z,19.73
2018-04-13T17:17:22.905Z,20.97
2018-04-13T17:20:32.790Z,20.27
2018-04-13T17:23:42.232Z,18.83
2018-04-13T17:26:52.448Z,23.77
2018-04-13T17:30:01.936Z,21.27
2018-04-13T17:33:12.176Z,20.80
2018-04-13T17:36:22.855Z,22.20
2018-04-13T17:39:32.272Z,20.53
2018-04-13T17:42:41.732Z,22.27
2018-04-13T17:45:51.188Z,21.60
2018-04-13T17:49:00.639Z,21.83
2018-04-13T17:52:11.820Z,22.03
2018-04-13T17:55:21.361Z,22.83
2018-04-13T17:58:31.585Z,22.27
2018-04-13T18:01:41.728Z,22.17
2018-04-13T18:04:56.585Z,23.10
2018-04-13T18:08:06.479Z,23.00
2018-04-13T18:11:16.758Z,24.43
2018-04-13T18:14:26.325Z,26.37
2018-04-13T18:17:35.810Z,25.80
2018-04-13T18:20:45.369Z,27.93
2018-04-13T18:23:54.681Z,27.40
2018-04-13T18:27:04.153Z,29.73
2018-04-13T18:30:13.968Z,30.23
2018-04-13T18:33:24.075Z,33.20
2018-04-13T18:36:34.343Z,32.00
2018-04-13T18:39:44.451Z,32.20
2018-04-13T18:42:54.627Z,32.07
2018-04-13T18:46:04.496Z,33.60
2018-04-13T18:49:14.140Z,33.23
2018-04-13T18:52:24.408Z,34.47
2018-04-13T18:55:34.317Z,29.67
2018-04-13T18:58:43.750Z,33.87
2018-04-13T19:01:53.935Z,33.00
2018-04-13T19:05:03.874Z,29.57
2018-04-13T19:08:14.484Z,30.87
2018-04-13T19:11:24.280Z,30.67
2018-04-13T19:14:34.590Z,30.17
2018-04-13T19:17:44.385Z,29.07
2018-04-13T19:20:54.935Z,29.83
2018-04-13T19:24:04.858Z,32.07
2018-04-13T19:27:15.820Z,30.13
2018-04-13T19:30:25.041Z,31.60
2018-04-13T19:33:35.314Z,25.00
2018-04-13T19:36:44.826Z,30.27
2018-04-13T19:39:55.545Z,24.80
2018-04-13T19:43:07.556Z,29.63
2018-04-13T19:46:17.679Z,33.20
2018-04-13T19:49:27.028Z,31.10
2018-04-13T19:52:36.431Z,32.33
2018-04-13T19:55:47.863Z,31.07
2018-04-13T19:58:59.008Z,32.63
2018-04-13T20:02:09.336Z,32.07
2018-04-13T20:05:19.424Z,35.40
2018-04-13T20:08:29.596Z,34.83
2018-04-13T20:11:39.076Z,38.27
2018-04-13T20:14:48.479Z,39.63
2018-04-13T20:17:58.373Z,42.40
2018-04-13T20:21:08.145Z,40.60
2018-04-13T20:24:18.035Z,43.27
2018-04-13T20:27:27.877Z,47.37
2018-04-13T20:30:38.505Z,50.30
2018-04-13T20:33:48.008Z,49.23
2018-04-13T20:36:58.337Z,43.07
2018-04-13T20:40:08.713Z,49.67
2018-04-13T20:43:17.967Z,54.47
2018-04-13T20:46:27.427Z,53.73
2018-04-13T20:49:37.224Z,54.73
2018-04-13T20:52:46.680Z,55.37
2018-04-13T20:55:56.924Z,52.47
2018-04-13T20:59:06.392Z,52.67
2018-04-13T21:02:16.872Z,53.97
2018-04-13T21:05:26.327Z,51.73
2018-04-13T21:08:36.528Z,51.97
2018-04-13T21:11:46.033Z,51.90
2018-04-13T21:14:56.043Z,53.07
2018-04-13T21:18:05.313Z,52.33
2018-04-13T21:21:14.762Z,51.80
2018-04-13T21:24:24.159Z,53.27
2018-04-13T21:27:33.452Z,54.30
2018-04-13T21:30:42.826Z,54.57
2018-04-13T21:33:52.726Z,52.03
2018-04-13T21:37:02.556Z,54.30
2018-04-13T21:40:11.868Z,53.13
2018-04-13T21:43:22.096Z,55.40
2018-04-13T21:46:32.812Z,55.67
2018-04-13T21:49:42.623Z,54.47
2018-04-13T21:52:52.936Z,54.13
2018-04-13T21:56:04.884Z,55.37
2018-04-13T21:59:14.452Z,54.10
2018-04-13T22:02:23.884Z,52.23
2018-04-13T22:05:34.970Z,54.27
2018-04-13T22:08:44.884Z,52.53
2018-04-13T22:11:55.313Z,52.63
2018-04-13T22:15:05.556Z,51.73
2018-04-13T22:18:15.376Z,52.73
2018-04-13T22:21:25.892Z,54.27
2018-04-13T22:24:35.553Z,55.93
2018-04-13T22:27:44.999Z,52.63
2018-04-13T22:30:55.516Z,53.30
2018-04-13T22:34:06.107Z,54.30
2018-04-13T22:37:15.949Z,53.83
2018-04-13T22:40:26.194Z,53.37
2018-04-13T22:43:37.436Z,52.73
2018-04-13T22:46:47.173Z,54.23
2018-04-13T22:49:57.392Z,55.30
2018-04-13T22:53:07.650Z,57.70
2018-04-13T22:56:17.479Z,56.30
2018-04-13T22:59:27.003Z,58.93
2018-04-13T23:02:37.204Z,59.77
2018-04-13T23:05:46.761Z,59.40
2018-04-13T23:08:57.392Z,57.07
2018-04-13T23:12:07.123Z,57.23
2018-04-13T23:15:16.650Z,57.63
2018-04-13T23:18:26.841Z,58.97
2018-04-13T23:21:37.060Z,59.13
2018-04-13T23:24:46.593Z,55.67
2018-04-13T23:27:55.990Z,58.90
2018-04-13T23:31:05.426Z,58.10
2018-04-13T23:34:14.866Z,58.63
2018-04-13T23:37:24.351Z,59.93
2018-04-13T23:40:33.965Z,56.63
2018-04-13T23:43:43.396Z,56.60
2018-04-13T23:46:52.923Z,59.77
2018-04-13T23:50:03.115Z,59.30
2018-04-13T23:53:13.356Z,59.93
2018-04-13T23:56:23.619Z,59.50
2018-04-13T23:59:33.184Z,59.40
